Time;durP1;ratioP1;P1;durP2;ratioP2;P2;SDS_P1;SDS_P2;PMS_P1;PMS_P2;Temp;Humidity;BMP_temperature;BMP_pressure;BME280_temperature;BME280_humidity;BME280_pressure;Samples;Min_cycle;Max_cycle;Signal;HPM_P1;HPM_P2
2022/11/08 00:01:31;;;;;;;9.35;1.80;;;;;;;11.12;100.00;100813.66;5118413;28;20046;-87
2022/11/08 00:03:59;;;;;;;10.68;1.70;;;;;;;11.02;100.00;100809.53;5133946;27;20044;-87
2022/11/08 00:14:39;;;;;;;9.80;1.80;;;;;;;10.81;100.00;100808.00;5131494;27;20081;-87
2022/11/08 00:17:05;;;;;;;9.03;1.90;;;;;;;10.77;100.00;100801.34;5117444;28;20127;-87
2022/11/08 00:19:30;;;;;;;7.60;1.80;;;;;;;10.73;100.00;100807.44;5116261;28;20118;-87
2022/11/08 00:21:56;;;;;;;10.25;1.95;;;;;;;10.70;100.00;100800.53;5133530;27;20031;-87
2022/11/08 00:24:21;;;;;;;8.30;1.70;;;;;;;10.64;100.00;100799.53;5115772;28;20035;-87
2022/11/08 00:26:47;;;;;;;7.10;1.87;;;;;;;10.66;100.00;100802.06;5116354;28;20036;-87
2022/11/08 00:29:12;;;;;;;13.27;2.07;;;;;;;10.62;100.00;100806.25;5116301;28;20042;-87
2022/11/08 00:31:38;;;;;;;8.55;1.55;;;;;;;10.55;100.00;100800.84;5098561;28;20055;-87
2022/11/08 00:34:03;;;;;;;9.93;2.10;;;;;;;10.47;100.00;100795.66;5116362;28;20047;-86
2022/11/08 00:36:29;;;;;;;9.07;2.07;;;;;;;10.44;100.00;100798.81;5133146;27;20039;-87
2022/11/08 00:38:54;;;;;;;4.10;1.37;;;;;;;10.40;100.00;100794.88;5115849;28;20472;-87
2022/11/08 00:41:19;;;;;;;5.22;1.55;;;;;;;10.33;100.00;100793.03;5116202;28;20346;-87
2022/11/08 00:43:45;;;;;;;8.80;2.30;;;;;;;10.30;100.00;100790.69;5115749;28;20044;-87
2022/11/08 00:46:10;;;;;;;9.90;1.90;;;;;;;10.25;100.00;100790.50;5098727;28;20035;-87
2022/11/08 00:48:38;;;;;;;9.52;1.77;;;;;;;10.20;100.00;100795.72;5115211;28;20040;-87
2022/11/08 00:51:06;;;;;;;9.73;2.00;;;;;;;10.18;100.00;100786.97;5115548;28;20051;-87
2022/11/08 00:53:35;;;;;;;6.35;2.15;;;;;;;10.19;100.00;100788.66;5115183;28;20495;-87
2022/11/08 00:56:05;;;;;;;8.65;2.20;;;;;;;10.18;100.00;100781.56;5132440;27;20035;-87
2022/11/08 00:58:31;;;;;;;8.48;1.67;;;;;;;10.18;100.00;100776.97;5116746;28;20050;-87
2022/11/08 01:00:56;;;;;;;9.93;1.70;;;;;;;10.23;100.00;100784.47;5114986;28;20032;-87
2022/11/08 01:03:23;;;;;;;6.53;2.07;;;;;;;10.19;100.00;100777.81;5115280;28;20099;-87
2022/11/08 01:05:51;;;;;;;7.55;1.70;;;;;;;10.20;100.00;100765.91;5116889;28;20109;-87
2022/11/08 01:08:18;;;;;;;6.47;1.40;;;;;;;10.21;100.00;100773.00;5115214;28;20180;-86
2022/11/08 01:10:48;;;;;;;6.83;1.53;;;;;;;10.19;100.00;100778.63;5114937;28;20039;-87
2022/11/08 01:13:14;;;;;;;8.20;1.95;;;;;;;10.21;100.00;100778.41;5116235;28;20027;-87
2022/11/08 01:15:42;;;;;;;11.38;1.88;;;;;;;10.19;100.00;100781.34;5114998;28;20062;-87
2022/11/08 01:18:08;;;;;;;9.13;1.70;;;;;;;10.18;100.00;100776.13;5132268;27;20039;-87
2022/11/08 01:20:42;;;;;;;10.82;1.83;;;;;;;10.16;100.00;100767.41;5114989;28;20130;-87
2022/11/08 01:23:08;;;;;;;5.63;1.55;;;;;;;10.15;100.00;100765.72;5115243;28;20043;-87
2022/11/08 01:25:36;;;;;;;6.80;1.70;;;;;;;10.15;100.00;100771.97;5131998;27;20039;-86
2022/11/08 01:28:01;;;;;;;8.18;1.90;;;;;;;10.13;100.00;100762.41;5097829;28;20046;-86
2022/11/08 01:30:27;;;;;;;5.60;1.70;;;;;;;10.14;100.00;100759.47;5131636;27;20048;-86
2022/11/08 01:32:52;;;;;;;9.40;1.90;;;;;;;10.12;100.00;100763.44;5115360;28;20070;-87
2022/11/08 01:35:17;;;;;;;5.20;1.75;;;;;;;10.11;100.00;100756.34;5114580;28;20498;-87
2022/11/08 01:37:43;;;;;;;7.88;2.10;;;;;;;10.10;100.00;100757.41;5114907;28;20122;-86
2022/11/08 01:40:09;;;;;;;11.23;2.03;;;;;;;10.08;100.00;100752.19;5131678;27;20464;-86
2022/11/08 01:42:34;;;;;;;7.13;1.90;;;;;;;10.06;100.00;100745.34;5131961;27;20105;-87
2022/11/08 01:45:07;;;;;;;8.23;2.50;;;;;;;10.05;100.00;100746.38;5115283;28;20416;-86
2022/11/08 01:47:32;;;;;;;5.15;2.53;;;;;;;10.03;100.00;100738.47;5114443;28;20089;-87
2022/11/08 01:50:08;;;;;;;8.67;2.33;;;;;;;9.98;100.00;100728.25;5115050;28;20043;-86
2022/11/08 01:52:38;;;;;;;10.25;2.60;;;;;;;9.97;100.00;100717.63;5115484;27;20032;-87
2022/11/08 01:55:29;;;;;;;15.27;2.73;;;;;;;9.93;100.00;100724.53;5131170;27;20077;-87
2022/11/08 01:58:06;;;;;;;9.33;2.50;;;;;;;9.91;100.00;100719.31;5114016;28;20044;-87
2022/11/08 02:00:34;;;;;;;11.45;2.50;;;;;;;9.86;100.00;100710.97;5114283;28;20043;-87
2022/11/08 02:03:02;;;;;;;9.18;2.60;;;;;;;9.83;100.00;100716.84;5131306;27;20046;-87
2022/11/08 02:05:29;;;;;;;10.30;2.33;;;;;;;9.81;100.00;100708.09;5115343;28;20044;-87
2022/11/08 02:08:07;;;;;;;11.82;2.35;;;;;;;9.82;100.00;100713.31;5114558;28;20483;-87
2022/11/08 02:10:45;;;;;;;11.23;2.30;;;;;;;9.81;100.00;100698.09;5115102;28;20035;-87
2022/11/08 02:13:14;;;;;;;6.43;1.88;;;;;;;9.82;100.00;100697.03;5114259;28;20039;-87
2022/11/08 02:15:40;;;;;;;7.18;2.60;;;;;;;9.83;100.00;100698.72;5130895;27;20053;-87
2022/11/08 02:18:06;;;;;;;6.80;1.77;;;;;;;9.82;100.00;100698.94;5115675;28;20035;-87
2022/11/08 02:20:35;;;;;;;8.87;2.20;;;;;;;9.82;100.00;100697.03;5113827;28;20391;-87
2022/11/08 02:23:09;;;;;;;9.60;2.20;;;;;;;9.84;100.00;100694.13;5113404;28;20042;-87
2022/11/08 02:25:34;;;;;;;5.53;1.83;;;;;;;9.83;100.00;100690.59;5115146;28;20035;-87
2022/11/08 02:28:00;;;;;;;9.10;1.63;;;;;;;9.80;100.00;100685.59;5113774;28;20055;-87
2022/11/08 02:30:34;;;;;;;10.80;1.93;;;;;;;9.80;100.00;100687.47;5130494;27;20042;-87
2022/11/08 02:33:12;;;;;;;5.32;1.67;;;;;;;9.75;100.00;100679.97;5114251;28;20278;-87
2022/11/08 02:35:38;;;;;;;7.70;1.88;;;;;;;9.76;100.00;100667.28;5114217;28;20440;-87
2022/11/08 02:38:03;;;;;;;7.63;1.50;;;;;;;9.72;100.00;100661.44;5114338;28;20122;-88
2022/11/08 02:40:44;;;;;;;9.48;2.05;;;;;;;9.66;100.00;100665.84;5113500;28;20281;-87
2022/11/08 02:43:10;;;;;;;6.13;1.60;;;;;;;9.68;100.00;100668.31;5130314;27;20040;-87
2022/11/08 02:45:35;;;;;;;6.37;1.70;;;;;;;9.63;100.00;100655.44;5113537;28;20047;-87
2022/11/08 02:48:00;;;;;;;10.53;1.97;;;;;;;9.61;100.00;100649.41;5130443;27;20123;-87
2022/11/08 02:50:26;;;;;;;11.37;1.93;;;;;;;9.60;100.00;100652.31;5113277;28;20130;-87
2022/11/08 02:52:51;;;;;;;8.00;1.65;;;;;;;9.56;100.00;100641.06;5130331;27;20089;-87
2022/11/08 02:55:17;;;;;;;7.57;1.57;;;;;;;9.52;100.00;100639.00;5113080;28;20065;-87
2022/11/08 02:57:42;;;;;;;5.60;1.73;;;;;;;9.52;100.00;100642.53;5113743;28;20043;-87
2022/11/08 03:00:08;;;;;;;7.90;1.87;;;;;;;9.55;100.00;100625.03;5113623;28;20138;-87
2022/11/08 03:02:34;;;;;;;6.55;1.80;;;;;;;9.54;100.00;100635.03;5129896;27;20034;-87
2022/11/08 03:04:59;;;;;;;6.63;1.53;;;;;;;9.51;100.00;100618.38;5113855;28;20031;-87
2022/11/08 03:07:25;;;;;;;6.00;1.60;;;;;;;9.52;100.00;100615.44;5113317;28;20035;-87
2022/11/08 03:09:50;;;;;;;9.40;1.67;;;;;;;9.52;100.00;100614.63;5113841;28;20032;-87
2022/11/08 03:12:16;;;;;;;7.23;1.70;;;;;;;9.57;100.00;100609.41;5113315;28;20067;-87
2022/11/08 03:14:41;;;;;;;6.07;1.70;;;;;;;9.54;100.00;100602.53;5113209;28;20039;-87
2022/11/08 03:17:06;;;;;;;6.43;1.30;;;;;;;9.51;100.00;100602.97;5113835;28;20435;-87
2022/11/08 03:19:34;;;;;;;10.37;1.73;;;;;;;9.50;100.00;100601.31;5112681;28;20443;-87
2022/11/08 03:22:00;;;;;;;8.45;1.67;;;;;;;9.47;100.00;100593.63;5095464;28;20031;-87
2022/11/08 03:24:25;;;;;;;7.87;1.77;;;;;;;9.41;100.00;100608.84;5112788;28;20455;-87
2022/11/08 03:26:51;;;;;;;5.63;1.40;;;;;;;9.38;100.00;100603.03;5112842;28;20046;-87
2022/11/08 03:29:16;;;;;;;12.37;2.33;;;;;;;9.41;100.00;100606.13;5112896;28;20273;-87
2022/11/08 03:31:42;;;;;;;4.93;1.20;;;;;;;9.40;100.00;100590.91;5130122;28;20085;-87
2022/11/08 03:34:09;;;;;;;5.93;1.93;;;;;;;9.35;100.00;100587.22;5095687;28;20035;-88
2022/11/08 03:36:34;;;;;;;8.20;1.55;;;;;;;9.31;100.00;100578.66;5129663;28;20031;-87
2022/11/08 03:39:00;;;;;;;7.27;1.50;;;;;;;9.25;100.00;100572.22;5113176;28;20070;-87
2022/11/08 03:41:26;;;;;;;8.82;1.67;;;;;;;9.26;100.00;100567.66;5112320;28;20036;-87
2022/11/08 03:43:51;;;;;;;6.33;1.80;;;;;;;9.21;100.00;100567.47;5112600;28;20066;-87
2022/11/08 03:46:19;;;;;;;8.07;1.53;;;;;;;9.18;100.00;100546.22;5112847;28;20032;-87
2022/11/08 03:48:44;;;;;;;8.02;1.48;;;;;;;9.16;100.00;100543.75;5112762;28;20031;-87
2022/11/08 03:51:09;;;;;;;6.30;2.03;;;;;;;9.20;100.00;100539.56;5095621;28;20192;-87
2022/11/08 03:53:35;;;;;;;7.87;1.80;;;;;;;9.18;100.00;100538.09;5112567;28;20054;-87
2022/11/08 03:56:03;;;;;;;5.75;1.75;;;;;;;9.16;100.00;100538.31;5112811;28;20071;-86
2022/11/08 03:58:28;;;;;;;8.73;1.73;;;;;;;9.15;100.00;100536.66;5129900;28;20039;-87
2022/11/08 04:00:57;;;;;;;7.20;1.70;;;;;;;9.13;100.00;100533.34;5112993;28;20039;-87
2022/11/08 04:03:23;;;;;;;6.13;1.63;;;;;;;9.09;100.00;100529.41;5112490;28;20502;-87
2022/11/08 04:05:49;;;;;;;10.95;1.73;;;;;;;9.09;100.00;100530.25;5129459;28;20035;-87
2022/11/08 04:08:14;;;;;;;6.67;1.90;;;;;;;9.09;100.00;100518.56;5112378;28;20039;-87
2022/11/08 04:10:39;;;;;;;9.98;1.50;;;;;;;9.10;100.00;100517.53;5113188;28;20032;-87
2022/11/08 04:15:54;;;;;;;5.60;1.60;;;;;;;9.10;100.00;100512.13;5113052;28;20404;-87
2022/11/08 04:21:23;;;;;;;6.88;2.00;;;;;;;9.10;100.00;100493.19;5127659;28;20126;-87
2022/11/08 04:23:52;;;;;;;7.75;2.03;;;;;;;9.08;100.00;100495.25;5129737;27;20067;-87
2022/11/08 04:26:18;;;;;;;10.35;2.30;;;;;;;9.08;100.00;100482.56;5116506;28;20097;-87
2022/11/08 04:28:44;;;;;;;10.13;2.42;;;;;;;9.07;100.00;100486.31;5132817;27;20042;-87
2022/11/08 04:31:13;;;;;;;11.03;2.40;;;;;;;9.12;100.00;100491.94;5115477;28;20044;-86
2022/11/08 04:33:40;;;;;;;11.93;2.90;;;;;;;9.16;100.00;100486.06;5116877;28;20449;-87
2022/11/08 04:36:12;;;;;;;7.25;2.30;;;;;;;9.11;100.00;100475.91;5133006;27;20058;-87
2022/11/08 04:38:40;;;;;;;10.25;2.30;;;;;;;9.12;100.00;100475.69;5116344;28;20042;-87
2022/11/08 04:41:21;;;;;;;14.53;2.70;;;;;;;9.11;100.00;100467.78;5116152;28;20032;-87
2022/11/08 04:43:47;;;;;;;12.73;2.83;;;;;;;9.07;100.00;100471.97;5133235;27;20478;-87
2022/11/08 04:46:15;;;;;;;10.77;2.15;;;;;;;9.09;100.00;100472.56;5115900;28;20031;-87
2022/11/08 04:48:41;;;;;;;8.90;2.30;;;;;;;9.09;100.00;100467.16;5133064;27;20039;-87
2022/11/08 04:51:10;;;;;;;9.30;2.15;;;;;;;9.12;100.00;100462.16;5115546;28;20044;-87
2022/11/08 04:53:36;;;;;;;7.17;1.77;;;;;;;9.12;100.00;100445.06;5133217;27;20074;-87
2022/11/08 04:56:08;;;;;;;10.77;2.38;;;;;;;9.09;100.00;100442.78;5115142;28;20063;-87
2022/11/08 04:58:35;;;;;;;7.25;2.20;;;;;;;9.15;100.00;100446.50;5117366;28;20039;-87
2022/11/08 05:01:02;;;;;;;5.00;1.77;;;;;;;9.09;100.00;100445.50;5115922;28;20044;-87
2022/11/08 05:03:29;;;;;;;12.43;1.67;;;;;;;9.05;100.00;100438.84;5132550;27;20039;-87
2022/11/08 05:05:54;;;;;;;6.20;1.67;;;;;;;9.01;100.00;100440.34;5117120;28;20028;-87
2022/11/08 05:08:20;;;;;;;9.30;2.25;;;;;;;8.97;100.00;100439.09;5115483;28;20047;-87
2022/11/08 05:10:45;;;;;;;5.53;1.63;;;;;;;8.94;100.00;100421.41;5115410;28;20467;-87
2022/11/08 05:13:11;;;;;;;6.67;1.70;;;;;;;8.86;100.00;100433.31;5115123;28;20387;-87
2022/11/08 05:15:36;;;;;;;8.73;1.80;;;;;;;8.85;100.00;100428.94;5116004;28;20111;-87
2022/11/08 05:18:01;;;;;;;4.80;1.77;;;;;;;8.84;100.00;100439.97;5115041;28;20093;-87
2022/11/08 05:23:23;;;;;;;7.17;2.20;;;;;;;8.85;100.00;100431.66;5116296;28;20132;-87
2022/11/08 05:25:49;;;;;;;9.20;1.98;;;;;;;8.91;100.00;100428.09;5100128;28;20491;-87
2022/11/08 05:28:15;;;;;;;7.50;1.48;;;;;;;9.00;100.00;100423.25;5132025;27;20046;-86
2022/11/08 05:30:41;;;;;;;8.05;1.67;;;;;;;9.00;100.00;100419.72;5115888;28;20426;-87
2022/11/08 05:33:06;;;;;;;10.30;2.10;;;;;;;8.95;100.00;100413.09;5115109;28;20039;-87
2022/11/08 05:35:33;;;;;;;9.87;1.83;;;;;;;8.94;100.00;100413.31;5113422;28;20123;-87
2022/11/08 05:37:58;;;;;;;6.50;1.80;;;;;;;8.96;100.00;100411.19;5114665;28;20142;-87
2022/11/08 05:40:24;;;;;;;9.30;1.87;;;;;;;8.97;100.00;100415.56;5115122;28;20540;-87
2022/11/08 05:42:53;;;;;;;7.60;2.10;;;;;;;8.97;100.00;100420.16;5115415;28;20043;-87
2022/11/08 05:45:18;;;;;;;8.70;1.70;;;;;;;8.94;100.00;100414.13;5114532;28;20040;-87
2022/11/08 05:47:44;;;;;;;7.05;1.83;;;;;;;8.95;100.00;100418.50;5115018;28;20387;-87
2022/11/08 05:50:10;;;;;;;10.10;2.60;;;;;;;8.91;100.00;100419.16;5114510;28;20062;-87
2022/11/08 05:52:38;;;;;;;11.98;2.65;;;;;;;8.92;100.00;100408.09;5131860;27;20110;-87
2022/11/08 05:55:04;;;;;;;8.10;1.80;;;;;;;8.95;100.00;100412.25;5114370;28;20039;-87
2022/11/08 05:57:30;;;;;;;8.23;1.80;;;;;;;8.93;100.00;100412.47;5131266;27;20165;-87
2022/11/08 05:59:55;;;;;;;9.53;2.70;;;;;;;8.94;100.00;100408.72;5131320;27;20463;-87
2022/11/08 06:02:21;;;;;;;9.30;1.83;;;;;;;8.92;100.00;100402.69;5114334;28;20438;-87
2022/11/08 06:04:46;;;;;;;8.77;2.10;;;;;;;8.88;100.00;100395.22;5114581;28;20045;-87
2022/11/08 06:07:15;;;;;;;10.30;2.15;;;;;;;8.87;100.00;100402.53;5114354;28;20058;-87
2022/11/08 06:09:41;;;;;;;8.43;1.92;;;;;;;8.87;100.00;100399.81;5114262;28;20474;-87
2022/11/08 06:12:06;;;;;;;6.70;2.13;;;;;;;8.87;100.00;100391.69;5113972;28;20035;-88
2022/11/08 06:14:39;;;;;;;7.13;2.33;;;;;;;8.83;100.00;100395.88;5113692;28;20040;-90
2022/11/08 06:17:04;;;;;;;6.93;2.03;;;;;;;8.86;100.00;100397.31;5114878;28;20023;-90
2022/11/08 06:19:32;;;;;;;7.83;2.20;;;;;;;8.83;100.00;100400.44;5114687;28;20475;-90
2022/11/08 06:22:02;;;;;;;8.00;2.20;;;;;;;8.83;100.00;100397.72;5114464;28;20146;-90
2022/11/08 06:24:28;;;;;;;8.70;2.00;;;;;;;8.83;100.00;100397.72;5097466;28;20040;-90
2022/11/08 06:26:53;;;;;;;8.77;2.10;;;;;;;8.85;100.00;100393.78;5131415;27;20376;-86
2022/11/08 06:29:21;;;;;;;6.67;2.00;;;;;;;8.81;100.00;100392.53;5115496;28;20036;-91
2022/11/08 06:31:51;;;;;;;8.35;2.47;;;;;;;8.85;100.00;100401.06;5115523;28;20056;-91
2022/11/08 06:34:26;;;;;;;6.32;1.63;;;;;;;8.87;100.00;100398.97;5116604;28;20490;-93
2022/11/08 06:37:01;;;;;;;;;;;;;;;;;;;;;
2022/11/08 06:39:30;;;;;;;6.15;2.00;;;;;;;8.90;100.00;100402.09;5116022;28;20032;-91
2022/11/08 06:42:00;;;;;;;5.37;1.73;;;;;;;8.93;100.00;100398.94;5114572;28;20035;-91
2022/11/08 06:44:25;;;;;;;9.20;1.83;;;;;;;9.01;100.00;100410.59;5113590;28;20035;-91
2022/11/08 06:46:54;;;;;;;7.18;1.90;;;;;;;8.99;100.00;100399.13;5130067;27;20062;-87
2022/11/08 06:49:21;;;;;;;9.37;2.20;;;;;;;8.95;100.00;100404.97;5130291;27;20067;-86
2022/11/08 06:51:53;;;;;;;5.35;1.67;;;;;;;8.92;100.00;100407.28;5096261;28;20031;-87
2022/11/08 06:54:18;;;;;;;6.65;1.92;;;;;;;8.93;100.00;100409.78;5130893;27;20036;-86
2022/11/08 06:56:45;;;;;;;7.00;1.85;;;;;;;8.98;100.00;100411.00;5113356;28;20042;-86
2022/11/08 06:59:11;;;;;;;6.67;1.53;;;;;;;8.96;100.00;100408.50;5130344;27;20036;-87
2022/11/08 07:01:40;;;;;;;5.13;1.70;;;;;;;8.98;100.00;100411.84;5130037;27;20446;-87
2022/11/08 07:04:07;;;;;;;4.90;1.67;;;;;;;8.98;100.00;100417.25;5112702;28;20031;-87
2022/11/08 07:06:33;;;;;;;6.53;1.75;;;;;;;9.00;100.00;100414.31;5130406;27;20039;-87
2022/11/08 07:09:01;;;;;;;8.17;1.80;;;;;;;9.01;100.00;100432.22;5130093;27;20044;-86
2022/11/08 07:11:28;;;;;;;4.20;1.65;;;;;;;9.05;100.00;100425.31;5112672;28;20548;-86
2022/11/08 07:13:54;;;;;;;5.43;1.80;;;;;;;9.07;100.00;100423.25;5113083;28;20065;-86
2022/11/08 07:16:19;;;;;;;6.65;1.50;;;;;;;9.08;100.00;100424.88;5112761;28;20392;-86
2022/11/08 07:18:45;;;;;;;3.77;1.40;;;;;;;9.07;100.00;100428.66;5112729;28;20441;-87
2022/11/08 07:21:10;;;;;;;4.83;1.50;;;;;;;9.07;100.00;100421.34;5112440;28;20043;-87
2022/11/08 07:23:36;;;;;;;5.60;1.50;;;;;;;9.09;100.00;100419.28;5113731;28;20055;-86
2022/11/08 07:26:03;;;;;;;7.07;1.43;;;;;;;9.13;100.00;100403.44;5111974;28;20028;-86
2022/11/08 07:28:30;;;;;;;3.42;1.30;;;;;;;9.16;100.00;100415.69;5112232;28;20035;-86
2022/11/08 07:31:01;;;;;;;3.88;1.30;;;;;;;9.21;100.00;100427.53;5113207;28;20036;-86
2022/11/08 07:33:27;;;;;;;3.00;1.00;;;;;;;9.27;99.48;100417.69;5129243;27;20036;-87
2022/11/08 07:35:52;;;;;;;4.28;1.10;;;;;;;9.34;99.29;100413.06;5129268;28;20044;-86
2022/11/08 07:38:18;;;;;;;4.30;1.27;;;;;;;9.42;98.56;100412.84;5112767;28;20079;-86
2022/11/08 07:40:44;;;;;;;6.00;1.20;;;;;;;9.56;98.04;100416.28;5113125;28;20042;-86
2022/11/08 07:43:12;;;;;;;3.58;1.15;;;;;;;9.62;97.26;100409.97;5130418;28;20035;-86
2022/11/08 07:45:37;;;;;;;4.18;0.90;;;;;;;9.75;95.99;100417.16;5112405;28;20067;-86
2022/11/08 07:48:07;;;;;;;5.07;1.00;;;;;;;9.84;95.46;100415.84;5112182;28;20074;-86
2022/11/08 07:50:33;;;;;;;2.83;0.80;;;;;;;10.01;94.29;100399.03;5113247;28;20444;-86
2022/11/08 07:52:58;;;;;;;4.13;1.02;;;;;;;10.14;93.42;100401.63;5111824;28;20046;-86
2022/11/08 07:55:25;;;;;;;4.47;0.70;;;;;;;10.34;91.46;100403.34;5112440;28;20039;-87
2022/11/08 07:57:50;;;;;;;4.45;0.85;;;;;;;10.50;90.15;100400.03;5113486;28;20039;-86
2022/11/08 08:00:16;;;;;;;3.27;0.90;;;;;;;10.66;88.59;100400.50;5117583;28;20428;-86
2022/11/08 08:02:42;;;;;;;4.82;0.80;;;;;;;10.81;87.87;100400.91;5117619;28;20039;-85
2022/11/08 08:05:10;;;;;;;3.13;0.77;;;;;;;10.92;87.16;100385.75;5116350;28;20236;-86
2022/11/08 08:07:36;;;;;;;3.40;1.10;;;;;;;11.05;86.81;100390.16;5117109;28;20096;-85
2022/11/08 08:10:02;;;;;;;1.38;0.75;;;;;;;11.14;85.88;100387.97;5133809;27;20050;-86
2022/11/08 08:12:27;;;;;;;2.10;0.82;;;;;;;11.31;83.84;100396.28;5099286;28;20040;-86
2022/11/08 08:14:53;;;;;;;1.70;0.80;;;;;;;11.44;83.20;100387.09;5116807;28;20036;-85
2022/11/08 08:17:18;;;;;;;4.00;0.90;;;;;;;11.50;82.40;100388.88;5099369;28;20040;-85
2022/11/08 08:19:44;;;;;;;2.08;0.90;;;;;;;11.59;80.98;100390.22;5116181;28;20044;-85
2022/11/08 08:22:09;;;;;;;3.03;0.90;;;;;;;11.67;81.34;100403.47;5116694;28;20415;-85
2022/11/08 08:24:37;;;;;;;2.20;0.73;;;;;;;11.74;81.04;100409.63;5117462;28;20434;-85
2022/11/08 08:27:03;;;;;;;1.77;0.90;;;;;;;11.83;79.94;100406.56;5116241;28;20040;-86
2022/11/08 08:29:28;;;;;;;1.53;0.70;;;;;;;11.92;78.82;100413.31;5115890;28;20050;-85
2022/11/08 08:31:54;;;;;;;1.92;1.00;;;;;;;11.93;78.77;100421.25;5132459;27;20424;-86
2022/11/08 08:34:20;;;;;;;3.30;0.77;;;;;;;11.98;78.64;100434.16;5115651;28;20070;-85
2022/11/08 08:36:45;;;;;;;2.97;0.95;;;;;;;12.04;77.93;100435.91;5133105;27;20035;-85
2022/11/08 08:39:11;;;;;;;2.17;1.00;;;;;;;12.10;77.19;100421.38;5098652;28;20131;-85
2022/11/08 08:41:39;;;;;;;2.60;1.00;;;;;;;12.14;77.65;100415.50;5115655;28;20135;-86
2022/11/08 08:44:05;;;;;;;3.33;1.20;;;;;;;12.24;76.78;100411.09;5098314;28;20035;-85
2022/11/08 08:46:30;;;;;;;2.77;0.80;;;;;;;12.34;77.19;100431.44;5115615;28;20159;-85
2022/11/08 08:48:55;;;;;;;3.17;0.90;;;;;;;12.33;76.19;100399.84;5098585;28;20074;-85
2022/11/08 08:51:21;;;;;;;2.30;0.82;;;;;;;12.45;77.20;100390.63;5115461;28;20373;-85
2022/11/08 08:53:46;;;;;;;2.70;0.70;;;;;;;12.52;76.32;100392.38;5115163;28;20073;-86
2022/11/08 08:56:12;;;;;;;2.73;0.87;;;;;;;12.61;76.09;100399.94;5115646;28;20472;-86
2022/11/08 08:58:37;;;;;;;2.73;1.10;;;;;;;12.66;76.07;100390.22;5098443;28;20501;-86
2022/11/08 09:01:07;;;;;;;4.20;1.10;;;;;;;12.66;75.50;100384.78;5099152;28;20097;-86
2022/11/08 09:03:33;;;;;;;2.90;1.00;;;;;;;12.69;75.73;100385.13;5132703;27;20300;-86
2022/11/08 09:05:59;;;;;;;2.40;1.02;;;;;;;12.73;75.05;100378.13;5115151;28;20037;-86
2022/11/08 09:08:25;;;;;;;4.10;1.05;;;;;;;12.82;75.01;100373.94;5114707;28;20081;-86
2022/11/08 09:10:55;;;;;;;2.73;1.10;;;;;;;12.92;75.14;100369.81;5132246;27;20535;-86
2022/11/08 09:13:22;;;;;;;1.90;0.85;;;;;;;13.00;74.63;100380.28;5115094;28;20031;-86
2022/11/08 09:15:48;;;;;;;3.90;0.93;;;;;;;13.03;74.56;100387.16;5114995;28;20039;-86
2022/11/08 09:18:14;;;;;;;2.73;0.87;;;;;;;13.06;73.38;100398.38;5116505;28;20046;-85
2022/11/08 09:20:42;;;;;;;2.05;0.80;;;;;;;13.08;72.80;100401.69;5115339;28;20031;-85
2022/11/08 09:23:09;;;;;;;4.47;1.15;;;;;;;13.02;73.38;100375.44;5114991;28;20042;-85
2022/11/08 09:25:35;;;;;;;3.72;0.98;;;;;;;13.05;73.29;100374.94;5114805;28;20042;-85
2022/11/08 09:28:00;;;;;;;3.43;1.00;;;;;;;13.13;72.66;100379.19;5115154;28;20044;-86
2022/11/08 09:30:26;;;;;;;4.57;1.00;;;;;;;13.12;73.40;100375.63;5114872;28;20119;-86
2022/11/08 09:32:54;;;;;;;2.87;0.80;;;;;;;13.13;72.51;100382.72;5114778;28;20079;-86
2022/11/08 09:35:20;;;;;;;1.23;0.93;;;;;;;13.18;72.77;100384.69;5098949;28;20109;-86
2022/11/08 09:37:45;;;;;;;1.30;0.85;;;;;;;13.25;72.09;100387.28;5131811;27;20067;-85
2022/11/08 09:40:20;;;;;;;2.83;0.93;;;;;;;13.30;72.34;100388.22;5114663;28;20063;-85
2022/11/08 09:43:05;;;;;;;3.63;1.30;;;;;;;13.43;71.97;100378.09;5131791;27;20043;-86
2022/11/08 09:45:45;;;;;;;4.32;0.85;;;;;;;13.63;71.76;100375.72;5115156;28;20537;-85
2022/11/08 09:48:34;;;;;;;5.05;1.10;;;;;;;13.81;71.67;100379.28;5115475;28;20040;-85
2022/11/08 09:51:06;;;;;;;4.15;1.30;;;;;;;13.88;70.43;100390.84;5115748;28;20364;-85
2022/11/08 09:53:50;;;;;;;3.27;1.10;;;;;;;13.97;71.02;100383.91;5114825;28;20035;-85
2022/11/08 09:56:23;;;;;;;3.58;1.20;;;;;;;13.99;69.64;100387.19;5113978;28;20049;-85
2022/11/08 09:58:53;;;;;;;4.95;1.10;;;;;;;14.02;69.44;100403.09;5131595;27;20101;-85
2022/11/08 10:01:21;;;;;;;2.35;0.77;;;;;;;14.01;68.90;100386.94;5114241;28;20060;-86
2022/11/08 10:03:51;;;;;;;4.65;1.10;;;;;;;14.06;69.07;100391.66;5114319;28;20063;-85
2022/11/08 10:06:23;;;;;;;2.80;1.00;;;;;;;14.17;68.89;100396.19;5114761;28;20119;-86
2022/11/08 10:09:17;;;;;;;3.45;0.95;;;;;;;14.34;68.08;100399.72;5114120;28;20046;-85
2022/11/08 10:12:08;;;;;;;2.67;0.90;;;;;;;14.41;67.85;100409.63;5114664;28;20036;-85
2022/11/08 10:15:04;;;;;;;1.88;0.90;;;;;;;14.48;66.92;100408.38;5114168;28;20081;-85
2022/11/08 10:17:51;;;;;;;2.92;0.88;;;;;;;14.51;66.97;100424.25;5114478;28;20036;-85
2022/11/08 10:20:26;;;;;;;2.60;0.93;;;;;;;14.55;66.46;100403.53;5113539;28;20072;-85
2022/11/08 10:23:13;;;;;;;4.50;1.08;;;;;;;14.62;65.55;100405.31;5114449;28;20040;-86
2022/11/08 10:25:45;;;;;;;5.20;1.20;;;;;;;14.62;65.42;100419.78;5113878;28;20042;-85
2022/11/08 10:28:15;;;;;;;5.68;0.95;;;;;;;14.61;65.33;100412.66;5115015;28;20035;-86
2022/11/08 10:30:46;;;;;;;2.25;0.70;;;;;;;14.55;65.79;100414.44;5113255;28;20523;-85
2022/11/08 10:33:23;;;;;;;2.50;1.10;;;;;;;14.60;66.41;100416.44;5111871;28;20433;-86
2022/11/08 10:36:00;;;;;;;4.20;1.00;;;;;;;14.60;65.99;100413.72;5130623;27;20135;-85
2022/11/08 10:38:38;;;;;;;3.60;1.10;;;;;;;14.60;65.68;100408.25;5114422;28;20067;-86
2022/11/08 10:41:19;;;;;;;1.92;1.20;;;;;;;14.56;66.40;100416.13;5114606;28;20067;-85
2022/11/08 10:43:52;;;;;;;2.65;0.93;;;;;;;14.60;66.47;100413.72;5113650;28;20036;-86
2022/11/08 10:46:35;;;;;;;2.87;1.17;;;;;;;14.62;66.84;100419.78;5113882;28;20071;-85
2022/11/08 10:49:29;;;;;;;2.45;0.88;;;;;;;14.67;66.85;100416.28;5113347;28;20046;-85
2022/11/08 10:51:57;;;;;;;4.45;1.08;;;;;;;14.82;64.89;100416.50;5112366;28;20039;-85
2022/11/08 10:54:51;;;;;;;5.60;1.35;;;;;;;14.93;66.28;100411.97;5113539;28;20089;-85
2022/11/08 10:57:25;;;;;;;4.45;1.20;;;;;;;15.04;65.30;100412.91;5113151;28;20509;-86
2022/11/08 10:59:51;;;;;;;2.03;0.83;;;;;;;15.10;64.69;100395.47;5113307;28;20409;-86
2022/11/08 11:02:20;;;;;;;3.08;1.20;;;;;;;15.09;63.59;100427.44;5130231;27;20039;-85
2022/11/08 11:04:46;;;;;;;3.40;1.20;;;;;;;15.00;64.13;100411.75;5113031;28;20045;-86
2022/11/08 11:07:33;;;;;;;1.88;0.90;;;;;;;14.91;65.81;100398.56;5113005;28;20031;-85
2022/11/08 11:10:24;;;;;;;3.30;1.23;;;;;;;14.81;65.02;100384.78;5130522;27;20071;-85
2022/11/08 11:12:57;;;;;;;2.25;1.23;;;;;;;14.76;64.87;100373.78;5112969;28;20055;-85
2022/11/08 11:15:35;;;;;;;2.55;1.27;;;;;;;14.66;66.36;100362.75;5113247;28;20119;-85
2022/11/08 11:18:04;;;;;;;3.20;0.77;;;;;;;14.76;66.36;100362.88;5130220;27;20041;-85
2022/11/08 11:20:33;;;;;;;5.00;1.10;;;;;;;14.76;65.71;100373.78;5129937;27;20126;-85
2022/11/08 11:23:13;;;;;;;;;;;;;;;;;;;;;
2022/11/08 11:25:50;;;;;;;4.03;1.35;;;;;;;14.81;65.09;100368.41;5129226;27;20065;-85
2022/11/08 11:28:15;;;;;;;2.53;1.27;;;;;;;14.82;65.32;100355.56;5129646;27;20032;-84
2022/11/08 11:30:46;;;;;;;2.27;0.93;;;;;;;14.85;65.01;100338.66;5095781;28;20073;-85
2022/11/08 11:33:32;;;;;;;6.38;1.40;;;;;;;15.00;65.94;100341.56;5111602;28;20412;-85
2022/11/08 11:36:08;;;;;;;3.90;1.13;;;;;;;15.22;64.42;100349.72;5129753;28;20115;-85
2022/11/08 11:38:49;;;;;;;5.22;1.10;;;;;;;15.48;64.10;100358.13;5129771;28;20152;-85
2022/11/08 11:41:23;;;;;;;2.75;1.00;;;;;;;15.59;62.72;100364.53;5112904;28;20050;-84
2022/11/08 11:44:03;;;;;;;3.97;1.10;;;;;;;15.72;62.81;100361.38;5130028;28;20046;-85
2022/11/08 11:46:38;;;;;;;5.75;1.20;;;;;;;15.65;62.48;100347.09;5114100;28;20061;-85
2022/11/08 11:49:15;;;;;;;3.78;1.00;;;;;;;15.70;63.41;100340.81;5112683;28;20035;-85
2022/11/08 11:51:41;;;;;;;4.10;0.98;;;;;;;15.63;62.49;100340.22;5129866;28;20031;-84